KFEW/FEW METAR and TAF weather

Enter ICAO airport designator
Station Type Date Time Source
KFEW METAR 2019/06/18 14:58 UTC NOAA

KFEW 181458Z AUTO 00000KT 10SM FEW075 SCT100 BKN130 14/10 A3015 RMK AO2 SLP158 T01400099 $


Station Type Date Time Source
KFEW Decoded METAR 2019/06/18 14:58 UTC NOAA

Station name not available
Jun 18, 2019 - 10:58 AM EDT / 2019.06.18 1458 UTC
Wind: Calm:0
Visibility: 10 mile(s):0
Sky conditions: mostly cloudy
Temperature: 57.2 F (14.0 C)
Dew Point: 49.8 F (9.9 C)
Relative Humidity: 76%
Pressure (altimeter): 30.15 in. Hg (1020 hPa)
ob: KFEW 181458Z AUTO 00000KT 10SM FEW075 SCT100 BKN130 14/10 A3015 RMK AO2 SLP158 T01400099
cycle: 15

Station Type Date Time Source
KFEW TAF UTC NOAA

Error!

Example: see airport list